AWD weather

Aniwa Airport
Aniwa, Tafea, Vanuatu

Public forecast

Using degrees Celsius for public forecast. Weather courtesy of forecast.io.

METAR (pilot weather report)

Closest report is Tanna Airport, 25.1 nm (46.5 km) WSW. Retrieved 2019/06/24 15:00 UTC (2 hours ago):

NVVW 241500Z 10010KT 9999 BKN020 OVC040 21/18 Q1016

TAF (pilot weather forecast)

Closest forecast is Tanna Airport, 25.1 nm (46.5 km) WSW. Retrieved 2019/06/24 12:06 UTC (5 hours ago):

TAF NVVW 241000Z 2412/2512 10008KT 9999 -SHRA FEW020 BKN050 INTER 2412/2418 7000 SHRA BKN018 OVC040